sensor_id;sensor_type;location;lat;lon;timestamp;temperature;humidity
11826;DHT22;5970;48.094;11.496;2023-02-28T00:00:48;-1.50;99.90
11826;DHT22;5970;48.094;11.496;2023-02-28T00:03:15;-1.60;93.70
11826;DHT22;5970;48.094;11.496;2023-02-28T00:05:42;-1.50;93.80
11826;DHT22;5970;48.094;11.496;2023-02-28T00:08:09;-1.50;93.60
11826;DHT22;5970;48.094;11.496;2023-02-28T00:10:35;-1.50;93.50
11826;DHT22;5970;48.094;11.496;2023-02-28T00:13:03;-1.40;93.60
11826;DHT22;5970;48.094;11.496;2023-02-28T00:15:31;-1.50;93.70
11826;DHT22;5970;48.094;11.496;2023-02-28T00:17:58;-0.40;94.20
11826;DHT22;5970;48.094;11.496;2023-02-28T00:20:24;-1.60;93.80
11826;DHT22;5970;48.094;11.496;2023-02-28T00:22:51;-1.60;93.90
11826;DHT22;5970;48.094;11.496;2023-02-28T00:25:19;-1.60;93.70
11826;DHT22;5970;48.094;11.496;2023-02-28T00:27:46;-1.70;93.80
11826;DHT22;5970;48.094;11.496;2023-02-28T00:30:14;-1.60;93.80
11826;DHT22;5970;48.094;11.496;2023-02-28T00:32:41;-1.50;93.80
11826;DHT22;5970;48.094;11.496;2023-02-28T00:35:08;-1.70;93.60
11826;DHT22;5970;48.094;11.496;2023-02-28T00:37:35;-1.70;93.90
11826;DHT22;5970;48.094;11.496;2023-02-28T00:40:01;-1.70;94.00
11826;DHT22;5970;48.094;11.496;2023-02-28T00:42:31;-1.70;94.00
11826;DHT22;5970;48.094;11.496;2023-02-28T00:44:57;-1.60;94.00
11826;DHT22;5970;48.094;11.496;2023-02-28T00:47:24;-1.70;93.80
11826;DHT22;5970;48.094;11.496;2023-02-28T00:49:50;-1.70;93.90
11826;DHT22;5970;48.094;11.496;2023-02-28T00:52:17;-1.70;94.00
11826;DHT22;5970;48.094;11.496;2023-02-28T00:54:44;-1.60;94.00
11826;DHT22;5970;48.094;11.496;2023-02-28T00:57:10;-1.60;93.80
11826;DHT22;5970;48.094;11.496;2023-02-28T00:59:37;-1.70;93.90
11826;DHT22;5970;48.094;11.496;2023-02-28T01:02:03;-1.60;94.00
11826;DHT22;5970;48.094;11.496;2023-02-28T01:04:30;-1.60;93.90
11826;DHT22;5970;48.094;11.496;2023-02-28T01:06:57;-1.70;93.90
11826;DHT22;5970;48.094;11.496;2023-02-28T01:09:23;-1.70;94.00
11826;DHT22;5970;48.094;11.496;2023-02-28T01:11:50;-1.80;94.10
11826;DHT22;5970;48.094;11.496;2023-02-28T01:14:17;-1.90;94.10
11826;DHT22;5970;48.094;11.496;2023-02-28T01:16:44;-2.00;94.30
11826;DHT22;5970;48.094;11.496;2023-02-28T01:19:10;-1.90;94.40
11826;DHT22;5970;48.094;11.496;2023-02-28T01:21:37;-2.00;94.40
11826;DHT22;5970;48.094;11.496;2023-02-28T01:24:04;-1.90;94.50
11826;DHT22;5970;48.094;11.496;2023-02-28T01:26:31;-1.90;94.40
11826;DHT22;5970;48.094;11.496;2023-02-28T01:28:58;-2.00;94.40
11826;DHT22;5970;48.094;11.496;2023-02-28T01:31:25;-2.00;94.50
11826;DHT22;5970;48.094;11.496;2023-02-28T01:33:52;-1.90;94.40
11826;DHT22;5970;48.094;11.496;2023-02-28T01:36:20;-1.80;94.40
11826;DHT22;5970;48.094;11.496;2023-02-28T01:38:47;-1.70;94.20
11826;DHT22;5970;48.094;11.496;2023-02-28T01:41:24;-1.70;94.10
11826;DHT22;5970;48.094;11.496;2023-02-28T01:43:53;-1.70;94.00
11826;DHT22;5970;48.094;11.496;2023-02-28T01:46:20;-1.80;94.20
11826;DHT22;5970;48.094;11.496;2023-02-28T01:48:48;-1.90;94.40
11826;DHT22;5970;48.094;11.496;2023-02-28T01:51:20;-1.80;94.40
11826;DHT22;5970;48.094;11.496;2023-02-28T01:53:49;-1.90;94.30
11826;DHT22;5970;48.094;11.496;2023-02-28T01:56:18;-1.90;94.30
11826;DHT22;5970;48.094;11.496;2023-02-28T01:58:50;-1.90;94.40
11826;DHT22;5970;48.094;11.496;2023-02-28T02:01:17;-1.80;97.50
11826;DHT22;5970;48.094;11.496;2023-02-28T02:03:51;-1.90;94.40
11826;DHT22;5970;48.094;11.496;2023-02-28T02:06:22;-1.80;94.30
11826;DHT22;5970;48.094;11.496;2023-02-28T02:08:49;-1.90;94.40
11826;DHT22;5970;48.094;11.496;2023-02-28T02:11:17;-1.90;94.40
11826;DHT22;5970;48.094;11.496;2023-02-28T02:23:47;-1.30;94.70
11826;DHT22;5970;48.094;11.496;2023-02-28T02:26:27;-1.90;94.40
11826;DHT22;5970;48.094;11.496;2023-02-28T02:29:12;-1.90;94.40
11826;DHT22;5970;48.094;11.496;2023-02-28T02:31:57;-1.90;94.40
11826;DHT22;5970;48.094;11.496;2023-02-28T02:34:32;-1.80;94.50
11826;DHT22;5970;48.094;11.496;2023-02-28T02:37:09;-1.90;94.60
11826;DHT22;5970;48.094;11.496;2023-02-28T02:42:31;-1.90;99.90
11826;DHT22;5970;48.094;11.496;2023-02-28T02:45:00;-1.90;99.90
11826;DHT22;5970;48.094;11.496;2023-02-28T02:49:55;-2.20;94.80
11826;DHT22;5970;48.094;11.496;2023-02-28T02:52:25;-2.10;95.10
11826;DHT22;5970;48.094;11.496;2023-02-28T02:54:54;-2.00;94.90
11826;DHT22;5970;48.094;11.496;2023-02-28T02:57:44;-2.10;95.00
11826;DHT22;5970;48.094;11.496;2023-02-28T03:00:09;-2.10;95.00
11826;DHT22;5970;48.094;11.496;2023-02-28T03:02:36;-2.20;95.10
11826;DHT22;5970;48.094;11.496;2023-02-28T03:08:06;-2.10;95.10
11826;DHT22;5970;48.094;11.496;2023-02-28T03:10:39;-2.30;95.20
11826;DHT22;5970;48.094;11.496;2023-02-28T03:15:36;-2.30;95.50
11826;DHT22;5970;48.094;11.496;2023-02-28T03:18:08;-2.30;95.40
11826;DHT22;5970;48.094;11.496;2023-02-28T03:20:44;-2.40;95.70
11826;DHT22;5970;48.094;11.496;2023-02-28T03:23:28;-2.20;95.70
11826;DHT22;5970;48.094;11.496;2023-02-28T03:26:06;-2.40;95.50
11826;DHT22;5970;48.094;11.496;2023-02-28T03:33:44;-2.30;95.70
11826;DHT22;5970;48.094;11.496;2023-02-28T03:36:13;-2.30;95.60
11826;DHT22;5970;48.094;11.496;2023-02-28T03:38:46;-2.20;95.80
11826;DHT22;5970;48.094;11.496;2023-02-28T03:41:21;-2.20;95.70
11826;DHT22;5970;48.094;11.496;2023-02-28T03:43:50;-2.10;95.70
11826;DHT22;5970;48.094;11.496;2023-02-28T03:46:20;-2.20;95.40
11826;DHT22;5970;48.094;11.496;2023-02-28T03:48:53;-2.20;95.50
11826;DHT22;5970;48.094;11.496;2023-02-28T03:51:22;-2.30;95.50
11826;DHT22;5970;48.094;11.496;2023-02-28T03:54:01;-2.30;95.80
11826;DHT22;5970;48.094;11.496;2023-02-28T03:56:31;-2.30;95.90
11826;DHT22;5970;48.094;11.496;2023-02-28T03:59:04;-2.30;96.00
11826;DHT22;5970;48.094;11.496;2023-02-28T04:01:33;-2.40;96.10
11826;DHT22;5970;48.094;11.496;2023-02-28T04:04:01;-2.50;96.10
11826;DHT22;5970;48.094;11.496;2023-02-28T04:06:30;-2.40;96.20
11826;DHT22;5970;48.094;11.496;2023-02-28T04:08:57;-2.30;96.20
11826;DHT22;5970;48.094;11.496;2023-02-28T04:11:27;-2.30;96.20
11826;DHT22;5970;48.094;11.496;2023-02-28T04:13:56;-2.60;96.40
11826;DHT22;5970;48.094;11.496;2023-02-28T04:16:23;-2.40;96.40
11826;DHT22;5970;48.094;11.496;2023-02-28T04:19:01;-2.30;96.30
11826;DHT22;5970;48.094;11.496;2023-02-28T04:21:29;-2.40;96.40
11826;DHT22;5970;48.094;11.496;2023-02-28T04:23:57;-2.30;96.50
11826;DHT22;5970;48.094;11.496;2023-02-28T04:26:30;-2.20;96.70
11826;DHT22;5970;48.094;11.496;2023-02-28T04:28:57;-2.20;96.60
11826;DHT22;5970;48.094;11.496;2023-02-28T04:31:24;-2.20;96.60
11826;DHT22;5970;48.094;11.496;2023-02-28T04:33:50;-2.00;96.70
11826;DHT22;5970;48.094;11.496;2023-02-28T04:36:17;-2.00;96.50
11826;DHT22;5970;48.094;11.496;2023-02-28T04:38:45;-1.90;96.40
11826;DHT22;5970;48.094;11.496;2023-02-28T04:41:12;-2.00;96.40
11826;DHT22;5970;48.094;11.496;2023-02-28T04:43:39;-2.00;96.40
11826;DHT22;5970;48.094;11.496;2023-02-28T04:46:06;-2.00;96.40
11826;DHT22;5970;48.094;11.496;2023-02-28T04:48:33;-2.10;96.50
11826;DHT22;5970;48.094;11.496;2023-02-28T04:51:01;-2.00;96.70
11826;DHT22;5970;48.094;11.496;2023-02-28T04:53:28;-2.10;96.70
11826;DHT22;5970;48.094;11.496;2023-02-28T04:55:55;-2.00;96.90
11826;DHT22;5970;48.094;11.496;2023-02-28T04:58:22;-1.90;96.80
11826;DHT22;5970;48.094;11.496;2023-02-28T05:00:50;-1.80;96.60
11826;DHT22;5970;48.094;11.496;2023-02-28T05:03:17;-1.80;96.50
11826;DHT22;5970;48.094;11.496;2023-02-28T05:05:43;-1.90;96.80
11826;DHT22;5970;48.094;11.496;2023-02-28T05:08:10;-1.80;96.90
11826;DHT22;5970;48.094;11.496;2023-02-28T05:10:37;-1.80;96.70
11826;DHT22;5970;48.094;11.496;2023-02-28T05:13:03;-1.70;96.90
11826;DHT22;5970;48.094;11.496;2023-02-28T05:15:30;-1.60;96.80
11826;DHT22;5970;48.094;11.496;2023-02-28T05:17:56;-1.70;96.80
11826;DHT22;5970;48.094;11.496;2023-02-28T05:20:23;-1.70;96.90
11826;DHT22;5970;48.094;11.496;2023-02-28T05:22:49;-1.70;96.80
11826;DHT22;5970;48.094;11.496;2023-02-28T05:25:17;-1.80;96.80
11826;DHT22;5970;48.094;11.496;2023-02-28T05:27:44;-1.70;96.80
11826;DHT22;5970;48.094;11.496;2023-02-28T05:30:11;-1.70;96.90
11826;DHT22;5970;48.094;11.496;2023-02-28T05:32:38;-1.70;96.80
11826;DHT22;5970;48.094;11.496;2023-02-28T05:35:05;-1.60;96.90
11826;DHT22;5970;48.094;11.496;2023-02-28T05:37:32;-1.70;97.00
11826;DHT22;5970;48.094;11.496;2023-02-28T05:39:59;-1.70;97.00
11826;DHT22;5970;48.094;11.496;2023-02-28T05:42:26;-1.60;97.00
11826;DHT22;5970;48.094;11.496;2023-02-28T05:44:52;-1.60;97.00
11826;DHT22;5970;48.094;11.496;2023-02-28T05:47:19;-1.50;96.90
11826;DHT22;5970;48.094;11.496;2023-02-28T05:49:46;-1.60;96.90
11826;DHT22;5970;48.094;11.496;2023-02-28T05:52:12;-1.40;97.00
11826;DHT22;5970;48.094;11.496;2023-02-28T05:54:39;-1.30;96.80
11826;DHT22;5970;48.094;11.496;2023-02-28T05:57:05;-1.30;96.80
11826;DHT22;5970;48.094;11.496;2023-02-28T05:59:48;-1.30;96.80
11826;DHT22;5970;48.094;11.496;2023-02-28T06:02:15;-1.40;96.60
11826;DHT22;5970;48.094;11.496;2023-02-28T06:04:43;-1.40;96.60
11826;DHT22;5970;48.094;11.496;2023-02-28T06:07:09;-1.40;96.80
11826;DHT22;5970;48.094;11.496;2023-02-28T06:09:36;-1.50;96.60
11826;DHT22;5970;48.094;11.496;2023-02-28T06:12:04;-1.50;96.80
11826;DHT22;5970;48.094;11.496;2023-02-28T06:14:32;-1.50;96.80
11826;DHT22;5970;48.094;11.496;2023-02-28T06:16:59;-1.40;96.60
11826;DHT22;5970;48.094;11.496;2023-02-28T06:19:26;-1.40;96.70
11826;DHT22;5970;48.094;11.496;2023-02-28T06:21:54;-1.40;96.50
11826;DHT22;5970;48.094;11.496;2023-02-28T06:24:21;-1.40;96.50
11826;DHT22;5970;48.094;11.496;2023-02-28T06:26:48;-1.40;96.50
11826;DHT22;5970;48.094;11.496;2023-02-28T06:29:14;-1.30;96.60
11826;DHT22;5970;48.094;11.496;2023-02-28T06:31:45;-1.30;96.30
11826;DHT22;5970;48.094;11.496;2023-02-28T06:34:12;-1.20;96.30
11826;DHT22;5970;48.094;11.496;2023-02-28T06:36:40;-1.30;96.10
11826;DHT22;5970;48.094;11.496;2023-02-28T06:39:07;-1.30;96.00
11826;DHT22;5970;48.094;11.496;2023-02-28T06:41:34;-1.30;96.00
11826;DHT22;5970;48.094;11.496;2023-02-28T06:44:21;-1.30;96.00
11826;DHT22;5970;48.094;11.496;2023-02-28T06:46:48;-1.40;96.10
11826;DHT22;5970;48.094;11.496;2023-02-28T06:49:14;-1.40;96.10
11826;DHT22;5970;48.094;11.496;2023-02-28T06:51:42;-1.30;96.10
11826;DHT22;5970;48.094;11.496;2023-02-28T06:54:11;-1.30;95.90
11826;DHT22;5970;48.094;11.496;2023-02-28T06:56:38;-1.10;95.90
11826;DHT22;5970;48.094;11.496;2023-02-28T06:59:05;-1.20;95.80
11826;DHT22;5970;48.094;11.496;2023-02-28T07:01:32;-1.30;95.90
11826;DHT22;5970;48.094;11.496;2023-02-28T07:03:59;-1.10;95.90
11826;DHT22;5970;48.094;11.496;2023-02-28T07:06:26;-1.10;95.80
11826;DHT22;5970;48.094;11.496;2023-02-28T07:08:53;-1.10;95.70
11826;DHT22;5970;48.094;11.496;2023-02-28T07:11:20;-1.20;95.60
11826;DHT22;5970;48.094;11.496;2023-02-28T07:13:49;-1.20;95.70
11826;DHT22;5970;48.094;11.496;2023-02-28T07:16:17;-1.10;95.80
11826;DHT22;5970;48.094;11.496;2023-02-28T07:18:44;-0.90;95.80
11826;DHT22;5970;48.094;11.496;2023-02-28T07:21:11;-0.80;95.70
11826;DHT22;5970;48.094;11.496;2023-02-28T07:23:38;-1.00;95.40
11826;DHT22;5970;48.094;11.496;2023-02-28T07:26:05;-1.00;95.70
11826;DHT22;5970;48.094;11.496;2023-02-28T07:28:32;-1.00;95.60
11826;DHT22;5970;48.094;11.496;2023-02-28T07:31:05;-0.90;95.60
11826;DHT22;5970;48.094;11.496;2023-02-28T07:33:32;-0.90;95.90
11826;DHT22;5970;48.094;11.496;2023-02-28T07:36:02;-0.80;95.60
11826;DHT22;5970;48.094;11.496;2023-02-28T07:38:29;-0.80;95.60
11826;DHT22;5970;48.094;11.496;2023-02-28T07:40:56;-1.00;95.50
11826;DHT22;5970;48.094;11.496;2023-02-28T07:43:23;-1.00;95.60
11826;DHT22;5970;48.094;11.496;2023-02-28T07:45:49;-0.80;95.50
11826;DHT22;5970;48.094;11.496;2023-02-28T07:48:16;-0.70;95.50
11826;DHT22;5970;48.094;11.496;2023-02-28T07:50:42;-0.70;95.40
11826;DHT22;5970;48.094;11.496;2023-02-28T07:53:09;-0.70;95.40
11826;DHT22;5970;48.094;11.496;2023-02-28T07:55:36;-0.70;95.40
11826;DHT22;5970;48.094;11.496;2023-02-28T07:58:02;-0.40;95.60
11826;DHT22;5970;48.094;11.496;2023-02-28T08:00:29;-0.30;95.20
11826;DHT22;5970;48.094;11.496;2023-02-28T08:02:57;-0.30;95.10
11826;DHT22;5970;48.094;11.496;2023-02-28T08:05:24;-0.30;95.00
11826;DHT22;5970;48.094;11.496;2023-02-28T08:07:50;-0.10;94.90
11826;DHT22;5970;48.094;11.496;2023-02-28T08:10:17;-0.30;94.70
11826;DHT22;5970;48.094;11.496;2023-02-28T08:12:44;-0.40;94.80
11826;DHT22;5970;48.094;11.496;2023-02-28T08:15:10;-0.20;95.00
11826;DHT22;5970;48.094;11.496;2023-02-28T08:17:37;-0.10;94.90
11826;DHT22;5970;48.094;11.496;2023-02-28T08:20:04;-0.20;94.90
11826;DHT22;5970;48.094;11.496;2023-02-28T08:22:31;-0.10;94.90
11826;DHT22;5970;48.094;11.496;2023-02-28T08:24:57;0.10;94.70
11826;DHT22;5970;48.094;11.496;2023-02-28T08:27:24;-0.10;94.60
11826;DHT22;5970;48.094;11.496;2023-02-28T08:29:51;-0.10;94.40
11826;DHT22;5970;48.094;11.496;2023-02-28T08:32:17;-0.10;94.80
11826;DHT22;5970;48.094;11.496;2023-02-28T08:34:55;0.10;94.70
11826;DHT22;5970;48.094;11.496;2023-02-28T08:37:22;0.30;94.50
11826;DHT22;5970;48.094;11.496;2023-02-28T08:39:49;0.30;94.20
11826;DHT22;5970;48.094;11.496;2023-02-28T08:42:15;0.10;94.30
11826;DHT22;5970;48.094;11.496;2023-02-28T08:44:42;0.30;94.40
11826;DHT22;5970;48.094;11.496;2023-02-28T08:47:08;0.40;94.30
11826;DHT22;5970;48.094;11.496;2023-02-28T08:49:36;0.20;94.20
11826;DHT22;5970;48.094;11.496;2023-02-28T08:52:03;0.20;94.20
11826;DHT22;5970;48.094;11.496;2023-02-28T08:54:30;0.10;94.20
11826;DHT22;5970;48.094;11.496;2023-02-28T08:56:58;0.30;94.40
11826;DHT22;5970;48.094;11.496;2023-02-28T08:59:25;0.40;94.20
11826;DHT22;5970;48.094;11.496;2023-02-28T09:01:51;0.50;94.20
11826;DHT22;5970;48.094;11.496;2023-02-28T09:04:18;0.60;94.10
11826;DHT22;5970;48.094;11.496;2023-02-28T09:06:46;0.50;94.00
11826;DHT22;5970;48.094;11.496;2023-02-28T09:09:15;0.50;94.10
11826;DHT22;5970;48.094;11.496;2023-02-28T09:11:41;0.60;94.00
11826;DHT22;5970;48.094;11.496;2023-02-28T09:14:08;0.50;93.90
11826;DHT22;5970;48.094;11.496;2023-02-28T09:16:35;0.60;93.90
11826;DHT22;5970;48.094;11.496;2023-02-28T09:19:02;0.60;93.80
11826;DHT22;5970;48.094;11.496;2023-02-28T09:21:29;0.70;93.70
11826;DHT22;5970;48.094;11.496;2023-02-28T09:23:56;0.60;93.80
11826;DHT22;5970;48.094;11.496;2023-02-28T09:26:24;0.60;93.90
11826;DHT22;5970;48.094;11.496;2023-02-28T09:28:51;0.60;93.80
11826;DHT22;5970;48.094;11.496;2023-02-28T09:31:19;0.70;93.80
11826;DHT22;5970;48.094;11.496;2023-02-28T09:33:50;0.70;93.70
11826;DHT22;5970;48.094;11.496;2023-02-28T09:36:17;0.70;93.70
11826;DHT22;5970;48.094;11.496;2023-02-28T09:38:43;0.70;93.80
11826;DHT22;5970;48.094;11.496;2023-02-28T09:41:17;0.80;93.90
11826;DHT22;5970;48.094;11.496;2023-02-28T09:43:47;1.00;93.80
11826;DHT22;5970;48.094;11.496;2023-02-28T09:48:44;1.30;93.20
11826;DHT22;5970;48.094;11.496;2023-02-28T09:53:40;1.50;92.80
11826;DHT22;5970;48.094;11.496;2023-02-28T09:56:20;1.60;92.60
11826;DHT22;5970;48.094;11.496;2023-02-28T09:58:59;1.60;92.70
11826;DHT22;5970;48.094;11.496;2023-02-28T10:01:29;1.50;92.20
11826;DHT22;5970;48.094;11.496;2023-02-28T10:06:48;1.10;93.10
11826;DHT22;5970;48.094;11.496;2023-02-28T10:11:42;1.20;93.00
11826;DHT22;5970;48.094;11.496;2023-02-28T10:14:17;1.20;93.00
11826;DHT22;5970;48.094;11.496;2023-02-28T10:16:48;1.10;93.00
11826;DHT22;5970;48.094;11.496;2023-02-28T10:19:22;1.30;93.10
11826;DHT22;5970;48.094;11.496;2023-02-28T10:21:55;1.60;93.00
11826;DHT22;5970;48.094;11.496;2023-02-28T10:24:26;1.50;92.60
11826;DHT22;5970;48.094;11.496;2023-02-28T10:26:56;1.60;92.70
11826;DHT22;5970;48.094;11.496;2023-02-28T10:29:25;1.60;92.70
11826;DHT22;5970;48.094;11.496;2023-02-28T10:31:52;1.70;92.60
11826;DHT22;5970;48.094;11.496;2023-02-28T10:34:19;1.80;92.60
11826;DHT22;5970;48.094;11.496;2023-02-28T10:36:45;1.60;92.70
11826;DHT22;5970;48.094;11.496;2023-02-28T10:41:57;1.40;92.70
11826;DHT22;5970;48.094;11.496;2023-02-28T10:44:24;1.50;92.60
11826;DHT22;5970;48.094;11.496;2023-02-28T10:46:51;1.50;92.80
11826;DHT22;5970;48.094;11.496;2023-02-28T10:49:22;1.80;92.50
11826;DHT22;5970;48.094;11.496;2023-02-28T10:51:52;1.80;92.30
11826;DHT22;5970;48.094;11.496;2023-02-28T10:54:20;1.90;92.20
11826;DHT22;5970;48.094;11.496;2023-02-28T10:59:35;2.20;91.90
11826;DHT22;5970;48.094;11.496;2023-02-28T11:02:01;2.60;91.30
11826;DHT22;5970;48.094;11.496;2023-02-28T11:07:16;2.80;90.60
11826;DHT22;5970;48.094;11.496;2023-02-28T11:09:48;3.30;90.30
11826;DHT22;5970;48.094;11.496;2023-02-28T11:12:23;3.70;91.00
11826;DHT22;5970;48.094;11.496;2023-02-28T11:14:53;3.90;89.40
11826;DHT22;5970;48.094;11.496;2023-02-28T11:17:24;4.20;88.40
11826;DHT22;5970;48.094;11.496;2023-02-28T11:19:53;4.40;87.80
11826;DHT22;5970;48.094;11.496;2023-02-28T11:22:22;4.90;86.40
11826;DHT22;5970;48.094;11.496;2023-02-28T11:24:50;5.40;86.50
11826;DHT22;5970;48.094;11.496;2023-02-28T11:27:25;6.20;83.60
11826;DHT22;5970;48.094;11.496;2023-02-28T11:29:51;5.40;82.40
11826;DHT22;5970;48.094;11.496;2023-02-28T11:32:22;6.10;83.80
11826;DHT22;5970;48.094;11.496;2023-02-28T11:37:34;6.80;80.10
11826;DHT22;5970;48.094;11.496;2023-02-28T11:40:01;5.00;80.30
11826;DHT22;5970;48.094;11.496;2023-02-28T11:42:46;5.60;82.80
11826;DHT22;5970;48.094;11.496;2023-02-28T11:48:10;3.20;82.30
11826;DHT22;5970;48.094;11.496;2023-02-28T11:50:45;4.70;84.10
11826;DHT22;5970;48.094;11.496;2023-02-28T11:55:47;4.60;85.10
11826;DHT22;5970;48.094;11.496;2023-02-28T12:01:07;5.20;84.50
11826;DHT22;5970;48.094;11.496;2023-02-28T12:03:42;5.10;82.10
11826;DHT22;5970;48.094;11.496;2023-02-28T12:06:24;5.50;84.20
11826;DHT22;5970;48.094;11.496;2023-02-28T12:14:25;5.50;82.60
11826;DHT22;5970;48.094;11.496;2023-02-28T12:19:26;6.90;80.80
11826;DHT22;5970;48.094;11.496;2023-02-28T12:22:02;7.10;79.00
11826;DHT22;5970;48.094;11.496;2023-02-28T12:27:02;6.10;79.50
11826;DHT22;5970;48.094;11.496;2023-02-28T12:29:44;6.10;81.50
11826;DHT22;5970;48.094;11.496;2023-02-28T12:34:41;8.40;77.80
11826;DHT22;5970;48.094;11.496;2023-02-28T12:37:20;8.60;75.30
11826;DHT22;5970;48.094;11.496;2023-02-28T12:39:50;9.30;72.70
11826;DHT22;5970;48.094;11.496;2023-02-28T12:42:22;9.50;71.20
11826;DHT22;5970;48.094;11.496;2023-02-28T12:44:52;9.60;72.40
11826;DHT22;5970;48.094;11.496;2023-02-28T12:47:20;10.50;69.70
11826;DHT22;5970;48.094;11.496;2023-02-28T12:49:58;10.80;68.00
11826;DHT22;5970;48.094;11.496;2023-02-28T12:55:14;11.10;65.60
11826;DHT22;5970;48.094;11.496;2023-02-28T12:57:48;11.50;65.70
11826;DHT22;5970;48.094;11.496;2023-02-28T13:00:17;11.10;63.80
11826;DHT22;5970;48.094;11.496;2023-02-28T13:02:55;10.60;63.90
11826;DHT22;5970;48.094;11.496;2023-02-28T13:10:37;8.90;67.00
11826;DHT22;5970;48.094;11.496;2023-02-28T13:13:04;8.70;69.60
11826;DHT22;5970;48.094;11.496;2023-02-28T13:15:30;8.50;69.70
11826;DHT22;5970;48.094;11.496;2023-02-28T13:18:01;8.30;69.50
11826;DHT22;5970;48.094;11.496;2023-02-28T13:20:29;8.30;70.40
11826;DHT22;5970;48.094;11.496;2023-02-28T13:22:57;7.80;70.60
11826;DHT22;5970;48.094;11.496;2023-02-28T13:28:00;6.80;72.80
11826;DHT22;5970;48.094;11.496;2023-02-28T13:38:32;6.20;74.30
11826;DHT22;5970;48.094;11.496;2023-02-28T13:52:19;6.10;76.60
11826;DHT22;5970;48.094;11.496;2023-02-28T14:03:09;6.30;75.40
11826;DHT22;5970;48.094;11.496;2023-02-28T14:05:37;6.00;75.90
11826;DHT22;5970;48.094;11.496;2023-02-28T14:08:05;5.90;77.00
11826;DHT22;5970;48.094;11.496;2023-02-28T14:10:34;6.30;77.90
11826;DHT22;5970;48.094;11.496;2023-02-28T14:13:11;7.00;77.20
11826;DHT22;5970;48.094;11.496;2023-02-28T14:15:48;7.40;73.70
11826;DHT22;5970;48.094;11.496;2023-02-28T14:18:17;7.80;74.30
11826;DHT22;5970;48.094;11.496;2023-02-28T14:20:45;8.30;72.50
11826;DHT22;5970;48.094;11.496;2023-02-28T14:31:01;10.10;67.00
11826;DHT22;5970;48.094;11.496;2023-02-28T14:33:57;10.00;66.60
11826;DHT22;5970;48.094;11.496;2023-02-28T14:36:32;9.90;67.80
11826;DHT22;5970;48.094;11.496;2023-02-28T14:39:07;9.60;67.50
11826;DHT22;5970;48.094;11.496;2023-02-28T14:41:37;9.40;68.50
11826;DHT22;5970;48.094;11.496;2023-02-28T14:46:41;9.00;69.60
11826;DHT22;5970;48.094;11.496;2023-02-28T14:49:19;9.10;69.40
11826;DHT22;5970;48.094;11.496;2023-02-28T14:51:48;9.20;70.00
11826;DHT22;5970;48.094;11.496;2023-02-28T14:54:16;9.50;69.10
11826;DHT22;5970;48.094;11.496;2023-02-28T14:56:48;9.70;68.80
11826;DHT22;5970;48.094;11.496;2023-02-28T14:59:25;9.50;68.10
11826;DHT22;5970;48.094;11.496;2023-02-28T15:02:13;9.70;67.60
11826;DHT22;5970;48.094;11.496;2023-02-28T15:04:39;9.70;67.70
11826;DHT22;5970;48.094;11.496;2023-02-28T15:07:13;9.00;67.60
11826;DHT22;5970;48.094;11.496;2023-02-28T15:09:40;8.60;67.40
11826;DHT22;5970;48.094;11.496;2023-02-28T15:12:07;8.10;69.80
11826;DHT22;5970;48.094;11.496;2023-02-28T15:14:37;7.80;70.60
11826;DHT22;5970;48.094;11.496;2023-02-28T15:17:08;7.80;71.30
11826;DHT22;5970;48.094;11.496;2023-02-28T15:19:36;7.10;70.70
11826;DHT22;5970;48.094;11.496;2023-02-28T15:22:04;6.80;72.20
11826;DHT22;5970;48.094;11.496;2023-02-28T15:27:03;6.60;72.80
11826;DHT22;5970;48.094;11.496;2023-02-28T15:29:32;6.10;73.20
11826;DHT22;5970;48.094;11.496;2023-02-28T15:32:02;6.10;73.50
11826;DHT22;5970;48.094;11.496;2023-02-28T15:34:34;5.70;74.30
11826;DHT22;5970;48.094;11.496;2023-02-28T15:39:57;5.30;75.20
11826;DHT22;5970;48.094;11.496;2023-02-28T15:42:27;5.30;76.10
11826;DHT22;5970;48.094;11.496;2023-02-28T15:44:54;5.10;76.00
11826;DHT22;5970;48.094;11.496;2023-02-28T15:47:22;4.70;77.20
11826;DHT22;5970;48.094;11.496;2023-02-28T15:49:52;4.70;78.00
11826;DHT22;5970;48.094;11.496;2023-02-28T15:52:26;4.80;78.60
11826;DHT22;5970;48.094;11.496;2023-02-28T15:54:54;4.80;78.60
11826;DHT22;5970;48.094;11.496;2023-02-28T15:57:21;4.60;79.00
11826;DHT22;5970;48.094;11.496;2023-02-28T15:59:50;4.50;78.80
11826;DHT22;5970;48.094;11.496;2023-02-28T16:02:21;4.40;78.60
11826;DHT22;5970;48.094;11.496;2023-02-28T16:05:23;4.40;79.60
11826;DHT22;5970;48.094;11.496;2023-02-28T16:07:42;4.30;79.70
11826;DHT22;5970;48.094;11.496;2023-02-28T16:10:10;4.10;79.80
11826;DHT22;5970;48.094;11.496;2023-02-28T16:12:37;4.10;80.00
11826;DHT22;5970;48.094;11.496;2023-02-28T16:15:08;4.00;80.50
11826;DHT22;5970;48.094;11.496;2023-02-28T16:17:37;4.00;81.50
11826;DHT22;5970;48.094;11.496;2023-02-28T16:22:40;3.70;81.30
11826;DHT22;5970;48.094;11.496;2023-02-28T16:25:11;3.80;81.70
11826;DHT22;5970;48.094;11.496;2023-02-28T16:27:37;3.80;81.60
11826;DHT22;5970;48.094;11.496;2023-02-28T16:30:04;3.60;81.90
11826;DHT22;5970;48.094;11.496;2023-02-28T16:32:33;3.60;82.60
11826;DHT22;5970;48.094;11.496;2023-02-28T16:35:01;3.70;82.70
11826;DHT22;5970;48.094;11.496;2023-02-28T16:37:28;3.70;83.50
11826;DHT22;5970;48.094;11.496;2023-02-28T16:39:54;3.80;83.50
11826;DHT22;5970;48.094;11.496;2023-02-28T16:42:22;3.80;83.80
11826;DHT22;5970;48.094;11.496;2023-02-28T16:44:49;3.60;83.90
11826;DHT22;5970;48.094;11.496;2023-02-28T16:47:16;3.70;84.00
11826;DHT22;5970;48.094;11.496;2023-02-28T16:49:43;3.70;84.30
11826;DHT22;5970;48.094;11.496;2023-02-28T16:52:10;3.60;84.20
11826;DHT22;5970;48.094;11.496;2023-02-28T16:54:38;3.60;84.70
11826;DHT22;5970;48.094;11.496;2023-02-28T16:57:05;3.50;85.00
11826;DHT22;5970;48.094;11.496;2023-02-28T16:59:32;3.50;85.50
11826;DHT22;5970;48.094;11.496;2023-02-28T17:01:59;3.50;85.50
11826;DHT22;5970;48.094;11.496;2023-02-28T17:04:26;3.50;85.60
11826;DHT22;5970;48.094;11.496;2023-02-28T17:06:53;3.40;86.00
11826;DHT22;5970;48.094;11.496;2023-02-28T17:09:20;3.40;86.00
11826;DHT22;5970;48.094;11.496;2023-02-28T17:11:53;3.30;85.80
11826;DHT22;5970;48.094;11.496;2023-02-28T17:14:21;3.30;86.00
11826;DHT22;5970;48.094;11.496;2023-02-28T17:16:49;3.20;86.10
11826;DHT22;5970;48.094;11.496;2023-02-28T17:19:16;3.10;86.30
11826;DHT22;5970;48.094;11.496;2023-02-28T17:21:43;2.90;86.90
11826;DHT22;5970;48.094;11.496;2023-02-28T17:24:10;3.00;87.20
11826;DHT22;5970;48.094;11.496;2023-02-28T17:26:44;2.90;87.60
11826;DHT22;5970;48.094;11.496;2023-02-28T17:29:15;2.80;88.00
11826;DHT22;5970;48.094;11.496;2023-02-28T17:31:42;2.80;88.30
11826;DHT22;5970;48.094;11.496;2023-02-28T17:34:09;2.70;88.60
11826;DHT22;5970;48.094;11.496;2023-02-28T17:36:36;2.80;89.10
11826;DHT22;5970;48.094;11.496;2023-02-28T17:39:04;2.60;89.10
11826;DHT22;5970;48.094;11.496;2023-02-28T17:41:34;2.60;89.30
11826;DHT22;5970;48.094;11.496;2023-02-28T17:44:01;2.50;89.70
11826;DHT22;5970;48.094;11.496;2023-02-28T17:46:28;2.50;90.00
11826;DHT22;5970;48.094;11.496;2023-02-28T17:48:55;2.50;90.20
11826;DHT22;5970;48.094;11.496;2023-02-28T17:51:22;2.40;90.30
11826;DHT22;5970;48.094;11.496;2023-02-28T17:53:49;2.40;90.60